createdAt,value
2022-10-09T00:00:25.473Z,5.96
2022-10-09T00:02:52.332Z,5.98
2022-10-09T00:05:19.244Z,6.03
2022-10-09T00:07:46.027Z,6.07
2022-10-09T00:10:12.655Z,5.99
2022-10-09T00:12:39.782Z,5.95
2022-10-09T00:15:06.889Z,5.94
2022-10-09T00:17:33.521Z,5.88
2022-10-09T00:20:00.679Z,5.89
2022-10-09T00:22:28.004Z,5.76
2022-10-09T00:24:54.716Z,5.71
2022-10-09T00:27:25.182Z,5.58
2022-10-09T00:29:52.272Z,5.56
2022-10-09T00:32:18.917Z,5.34
2022-10-09T00:34:45.574Z,5.41
2022-10-09T00:37:12.671Z,5.44
2022-10-09T00:39:39.397Z,5.53
2022-10-09T00:42:06.086Z,5.63
2022-10-09T00:45:00.202Z,5.53
2022-10-09T00:47:30.058Z,5.35
2022-10-09T00:50:04.941Z,5.49
2022-10-09T00:52:33.206Z,5.50
2022-10-09T00:55:02.307Z,5.58
2022-10-09T00:57:31.117Z,5.53
2022-10-09T00:59:58.834Z,5.53
2022-10-09T01:02:25.600Z,5.25
2022-10-09T01:04:52.257Z,5.34
2022-10-09T01:07:32.042Z,5.19
2022-10-09T01:10:11.902Z,5.16
2022-10-09T01:13:27.600Z,5.01
2022-10-09T01:16:05.380Z,5.08
2022-10-09T01:18:45.852Z,5.11
2022-10-09T01:21:38.593Z,5.08
2022-10-09T01:24:26.873Z,5.03
2022-10-09T01:26:57.247Z,4.94
2022-10-09T01:29:26.958Z,5.01
2022-10-09T01:31:55.466Z,5.03
2022-10-09T01:34:24.202Z,5.07
2022-10-09T01:36:52.394Z,5.11
2022-10-09T01:39:23.092Z,5.09
2022-10-09T01:41:52.269Z,5.00
2022-10-09T01:44:30.162Z,4.95
2022-10-09T01:46:57.279Z,5.02
2022-10-09T01:49:42.516Z,4.64
2022-10-09T01:52:27.493Z,4.66
2022-10-09T01:55:17.342Z,4.65
2022-10-09T01:57:50.924Z,4.77
2022-10-09T02:00:18.408Z,4.81
2022-10-09T02:02:46.875Z,4.85
2022-10-09T02:05:22.363Z,4.79
2022-10-09T02:07:49.978Z,4.81
2022-10-09T02:10:18.763Z,4.81
2022-10-09T02:12:53.027Z,4.83
2022-10-09T02:15:22.488Z,4.85
2022-10-09T02:17:52.501Z,4.86
2022-10-09T02:20:31.130Z,4.75
2022-10-09T02:23:00.509Z,4.83
2022-10-09T02:25:27.207Z,4.78
2022-10-09T02:27:55.770Z,4.86
2022-10-09T02:30:26.621Z,4.78
2022-10-09T02:32:54.579Z,4.81
2022-10-09T02:35:21.810Z,4.55
2022-10-09T02:37:49.197Z,4.56
2022-10-09T02:40:16.037Z,4.53
2022-10-09T02:42:42.679Z,4.69
2022-10-09T02:45:09.921Z,4.59
2022-10-09T02:47:36.578Z,4.52
2022-10-09T02:50:03.474Z,4.66
2022-10-09T02:52:30.594Z,4.59
2022-10-09T02:55:01.741Z,4.39
2022-10-09T02:57:28.913Z,4.62
2022-10-09T02:59:55.519Z,4.47
2022-10-09T03:02:22.350Z,4.62
2022-10-09T03:04:49.082Z,4.66
2022-10-09T03:07:15.743Z,4.73
2022-10-09T03:09:42.958Z,4.69
2022-10-09T03:12:09.626Z,4.60
2022-10-09T03:14:36.314Z,4.69
2022-10-09T03:17:02.938Z,4.32
2022-10-09T03:19:29.651Z,4.42
2022-10-09T03:21:56.306Z,4.47
2022-10-09T03:24:22.954Z,4.55
2022-10-09T03:26:49.660Z,4.50
2022-10-09T03:29:16.306Z,4.58
2022-10-09T03:31:58.420Z,4.63
2022-10-09T03:34:25.222Z,4.62
2022-10-09T03:36:51.867Z,4.70
2022-10-09T03:39:18.485Z,4.75
2022-10-09T03:41:45.217Z,4.79
2022-10-09T03:44:12.012Z,4.82
2022-10-09T03:46:38.784Z,4.73
2022-10-09T03:49:05.425Z,4.72
2022-10-09T03:51:32.096Z,4.66
2022-10-09T03:53:58.932Z,4.68
2022-10-09T03:56:25.638Z,4.51
2022-10-09T03:58:52.422Z,4.55
2022-10-09T04:01:19.111Z,4.63
2022-10-09T04:03:45.899Z,4.57
2022-10-09T04:06:12.519Z,4.59
2022-10-09T04:08:39.214Z,4.63
2022-10-09T04:11:05.934Z,4.63
2022-10-09T04:13:32.618Z,4.47
2022-10-09T04:15:59.732Z,4.52
2022-10-09T04:18:26.432Z,4.35
2022-10-09T04:20:55.243Z,4.39
2022-10-09T04:23:27.899Z,4.53
2022-10-09T04:25:56.465Z,4.52
2022-10-09T04:28:23.649Z,4.49
2022-10-09T04:30:52.080Z,4.29
2022-10-09T04:33:19.023Z,4.22
2022-10-09T04:35:49.497Z,4.49
2022-10-09T04:38:16.189Z,4.30
2022-10-09T04:40:42.893Z,4.45
2022-10-09T04:43:09.767Z,4.61
2022-10-09T04:45:40.228Z,4.74
2022-10-09T04:48:06.956Z,4.50
2022-10-09T04:50:33.574Z,4.70
2022-10-09T04:53:00.239Z,4.97
2022-10-09T04:55:26.907Z,5.08
2022-10-09T04:57:53.503Z,5.21
2022-10-09T05:00:20.193Z,5.28
2022-10-09T05:02:47.297Z,5.28
2022-10-09T05:05:14.420Z,5.30
2022-10-09T05:07:41.066Z,5.37
2022-10-09T05:10:08.232Z,5.43
2022-10-09T05:12:34.926Z,5.37
2022-10-09T05:15:01.610Z,5.61
2022-10-09T05:17:28.422Z,5.73
2022-10-09T05:19:55.092Z,5.60
2022-10-09T05:22:21.743Z,5.91
2022-10-09T05:24:48.393Z,6.04
2022-10-09T05:27:15.088Z,6.16
2022-10-09T05:29:41.734Z,6.38
2022-10-09T05:32:08.509Z,6.46
2022-10-09T05:34:35.639Z,6.56
2022-10-09T05:37:02.298Z,6.79
2022-10-09T05:39:28.991Z,6.85
2022-10-09T05:41:55.591Z,7.12
2022-10-09T05:44:22.384Z,7.29
2022-10-09T05:46:49.040Z,7.55
2022-10-09T05:49:15.659Z,7.79
2022-10-09T05:51:45.304Z,8.06
2022-10-09T05:54:16.560Z,8.74
2022-10-09T05:56:44.568Z,9.73
2022-10-09T05:59:19.446Z,10.70
2022-10-09T06:01:48.951Z,11.55
2022-10-09T06:04:23.535Z,12.13
2022-10-09T06:06:51.057Z,12.75
2022-10-09T06:09:20.031Z,13.33
2022-10-09T06:11:46.714Z,13.66
2022-10-09T06:14:13.792Z,14.03
2022-10-09T06:16:42.877Z,14.95
2022-10-09T06:19:12.804Z,15.98
2022-10-09T06:21:39.696Z,16.15
2022-10-09T06:24:06.888Z,16.25
2022-10-09T06:26:33.870Z,17.34
2022-10-09T06:29:02.144Z,18.22
2022-10-09T06:31:31.783Z,18.72
2022-10-09T06:34:00.617Z,19.04
2022-10-09T06:36:34.149Z,18.85
2022-10-09T06:39:03.919Z,19.98
2022-10-09T06:41:30.786Z,19.22
2022-10-09T06:44:00.634Z,18.50
2022-10-09T06:46:33.870Z,19.74
2022-10-09T06:49:01.464Z,19.61
2022-10-09T06:51:29.024Z,20.95
2022-10-09T06:53:58.042Z,19.59
2022-10-09T06:56:26.725Z,19.86
2022-10-09T06:58:53.700Z,21.97
2022-10-09T07:01:26.783Z,22.55
2022-10-09T07:04:01.644Z,21.48
2022-10-09T07:06:31.050Z,20.40
2022-10-09T07:09:04.473Z,19.75
2022-10-09T07:11:34.707Z,19.54
2022-10-09T07:14:03.125Z,19.90
2022-10-09T07:16:32.535Z,21.91
2022-10-09T07:19:03.885Z,20.82
2022-10-09T07:21:30.798Z,19.47
2022-10-09T07:24:00.830Z,22.12
2022-10-09T07:26:30.110Z,23.62
2022-10-09T07:28:57.790Z,23.26
2022-10-09T07:31:25.047Z,24.71
2022-10-09T07:33:53.869Z,25.20
2022-10-09T07:36:20.739Z,23.84
2022-10-09T07:38:55.455Z,23.14
2022-10-09T07:41:23.993Z,25.02
2022-10-09T07:43:52.059Z,24.08
2022-10-09T07:46:21.465Z,22.20
2022-10-09T07:48:48.236Z,21.24
2022-10-09T07:51:20.648Z,23.28
2022-10-09T07:53:47.943Z,24.49
2022-10-09T07:56:20.289Z,20.65
2022-10-09T07:58:51.435Z,19.81
2022-10-09T08:01:20.318Z,20.19
2022-10-09T08:03:48.269Z,21.09
2022-10-09T08:06:15.454Z,21.36
2022-10-09T08:08:42.712Z,21.92
2022-10-09T08:11:14.283Z,21.92
2022-10-09T08:13:41.814Z,21.40
2022-10-09T08:16:09.479Z,21.24
2022-10-09T08:18:36.768Z,21.07
2022-10-09T08:21:11.077Z,21.16
2022-10-09T08:23:37.730Z,21.23
2022-10-09T08:26:05.511Z,21.61
2022-10-09T08:28:32.255Z,21.80
2022-10-09T08:30:59.009Z,22.73
2022-10-09T08:33:26.075Z,22.65
2022-10-09T08:35:53.614Z,23.62
2022-10-09T08:38:45.678Z,24.20
2022-10-09T08:41:13.764Z,24.60
2022-10-09T08:43:45.385Z,24.68
2022-10-09T08:46:26.303Z,25.82
2022-10-09T08:48:54.013Z,25.62
2022-10-09T08:51:28.068Z,25.39
2022-10-09T08:54:05.546Z,24.91
2022-10-09T08:56:33.444Z,25.81
2022-10-09T08:59:02.139Z,26.45
2022-10-09T09:01:49.930Z,25.49
2022-10-09T09:04:55.143Z,24.03
2022-10-09T09:07:49.147Z,24.55
2022-10-09T09:10:24.629Z,25.65
2022-10-09T09:13:01.794Z,25.51
2022-10-09T09:15:46.742Z,24.73
2022-10-09T09:18:42.971Z,24.72
2022-10-09T09:21:35.592Z,24.00
2022-10-09T09:24:11.803Z,25.19
2022-10-09T09:26:40.488Z,24.34
2022-10-09T09:29:07.394Z,23.89
2022-10-09T09:31:37.271Z,24.24
2022-10-09T09:34:09.754Z,23.66
2022-10-09T09:36:42.373Z,23.09
2022-10-09T09:42:14.821Z,24.40
2022-10-09T09:44:49.025Z,23.97
2022-10-09T09:47:27.898Z,23.82
2022-10-09T09:50:01.074Z,23.55
2022-10-09T09:52:32.134Z,24.82
2022-10-09T09:54:59.394Z,24.86
2022-10-09T09:57:35.885Z,25.22
2022-10-09T10:00:19.727Z,26.16
2022-10-09T10:02:47.091Z,24.64
2022-10-09T10:05:17.203Z,25.32
2022-10-09T10:07:44.278Z,24.98
2022-10-09T10:10:20.975Z,25.19
2022-10-09T10:13:00.279Z,25.92
2022-10-09T10:15:29.601Z,24.97
2022-10-09T10:18:07.345Z,25.06
2022-10-09T10:20:45.466Z,25.46
2022-10-09T10:23:26.060Z,26.21
2022-10-09T10:25:57.161Z,25.48
2022-10-09T10:28:32.543Z,24.55
2022-10-09T10:31:04.833Z,25.43
2022-10-09T10:33:33.778Z,25.86
2022-10-09T10:36:01.337Z,26.08
2022-10-09T10:38:38.672Z,24.28
2022-10-09T10:41:24.111Z,24.85
2022-10-09T10:43:53.862Z,25.48
2022-10-09T10:46:34.490Z,25.74
2022-10-09T10:49:01.251Z,25.76
2022-10-09T10:51:46.339Z,26.47
2022-10-09T10:54:12.910Z,27.21
2022-10-09T10:56:55.599Z,27.13
2022-10-09T10:59:46.733Z,26.77
2022-10-09T11:02:57.185Z,26.49
2022-10-09T11:05:25.411Z,26.65
2022-10-09T11:08:23.091Z,25.99
2022-10-09T11:10:55.669Z,25.67
2022-10-09T11:13:28.046Z,25.57
2022-10-09T11:16:21.527Z,25.54
2022-10-09T11:19:04.599Z,25.80
2022-10-09T11:21:58.458Z,26.26
2022-10-09T11:24:46.926Z,26.01
2022-10-09T11:27:19.384Z,26.14
2022-10-09T11:29:57.557Z,26.88
2022-10-09T11:32:36.470Z,26.48
2022-10-09T11:35:24.877Z,26.35
2022-10-09T11:38:04.427Z,25.33
2022-10-09T11:40:36.717Z,25.48
2022-10-09T11:43:25.077Z,25.56
2022-10-09T11:46:16.153Z,25.91
2022-10-09T11:48:46.402Z,25.98
2022-10-09T11:51:12.989Z,26.43
2022-10-09T11:53:40.477Z,26.67
2022-10-09T11:56:19.738Z,26.86
2022-10-09T11:59:00.323Z,26.82
2022-10-09T12:01:33.228Z,25.55
2022-10-09T12:04:50.045Z,25.38
2022-10-09T12:07:13.279Z,24.50
2022-10-09T12:09:43.565Z,25.10
2022-10-09T12:12:16.172Z,24.92
2022-10-09T12:14:46.459Z,24.70
2022-10-09T12:17:23.303Z,23.89
2022-10-09T12:20:04.029Z,23.70
2022-10-09T12:22:35.959Z,24.11
2022-10-09T12:25:07.287Z,23.76
2022-10-09T12:27:38.225Z,23.88
2022-10-09T12:30:11.055Z,23.50
2022-10-09T12:32:43.810Z,23.66
2022-10-09T12:35:35.104Z,23.89
2022-10-09T12:38:02.454Z,23.36
2022-10-09T12:40:34.082Z,23.37
2022-10-09T12:43:07.664Z,23.68
2022-10-09T12:45:42.399Z,23.37
2022-10-09T12:48:12.545Z,23.13
2022-10-09T12:50:39.832Z,22.82
2022-10-09T12:53:14.439Z,22.83
2022-10-09T12:55:44.811Z,23.27
2022-10-09T12:58:33.075Z,23.02
2022-10-09T13:01:12.342Z,23.20
2022-10-09T13:03:43.150Z,23.55
2022-10-09T13:06:24.766Z,23.76
2022-10-09T13:09:01.210Z,23.51
2022-10-09T13:11:32.917Z,23.55
2022-10-09T13:14:00.064Z,23.44
2022-10-09T13:16:27.024Z,23.42
2022-10-09T13:19:02.483Z,23.59
2022-10-09T13:21:35.472Z,23.63
2022-10-09T13:24:10.397Z,23.50
2022-10-09T13:26:38.670Z,23.64
2022-10-09T13:29:06.966Z,23.29
2022-10-09T13:31:34.336Z,23.22
2022-10-09T13:34:09.857Z,23.17
2022-10-09T13:36:36.582Z,22.95
2022-10-09T13:39:04.363Z,22.64
2022-10-09T13:41:31.920Z,22.42
2022-10-09T13:43:58.912Z,22.54
2022-10-09T13:46:25.588Z,22.68
2022-10-09T13:48:52.301Z,22.60
2022-10-09T13:51:18.976Z,22.61
2022-10-09T13:53:45.665Z,22.79
2022-10-09T13:56:12.276Z,22.75
2022-10-09T13:58:38.960Z,22.78
2022-10-09T14:01:05.953Z,22.66
2022-10-09T14:03:32.627Z,22.49
2022-10-09T14:06:00.291Z,22.47
2022-10-09T14:08:27.241Z,22.12
2022-10-09T14:10:54.216Z,22.16
2022-10-09T14:13:21.898Z,22.46
2022-10-09T14:15:48.618Z,22.49
2022-10-09T14:18:15.298Z,21.97
2022-10-09T14:20:41.890Z,21.97
2022-10-09T14:23:09.428Z,21.70
2022-10-09T14:25:36.264Z,21.56
2022-10-09T14:28:03.652Z,21.65
2022-10-09T14:30:30.383Z,21.40
2022-10-09T14:32:57.046Z,21.73
2022-10-09T14:35:23.736Z,21.46
2022-10-09T14:37:50.482Z,21.25
2022-10-09T14:40:17.367Z,21.20
2022-10-09T14:42:44.160Z,20.97
2022-10-09T14:45:11.168Z,20.99
2022-10-09T14:47:37.845Z,20.99
2022-10-09T14:50:04.832Z,20.83
2022-10-09T14:52:31.788Z,20.69
2022-10-09T14:54:58.478Z,20.54
2022-10-09T14:57:25.120Z,20.37
2022-10-09T14:59:51.765Z,20.02
2022-10-09T15:02:18.459Z,19.77
2022-10-09T15:04:45.500Z,19.55
2022-10-09T15:07:12.176Z,19.45
2022-10-09T15:09:38.777Z,19.30
2022-10-09T15:12:05.790Z,19.05
2022-10-09T15:14:32.514Z,18.89
2022-10-09T15:16:59.163Z,18.61
2022-10-09T15:19:25.829Z,18.41
2022-10-09T15:21:52.470Z,18.35
2022-10-09T15:24:19.177Z,18.26
2022-10-09T15:26:45.847Z,18.34
2022-10-09T15:29:12.493Z,18.14
2022-10-09T15:31:41.205Z,17.98
2022-10-09T15:34:10.472Z,17.75
2022-10-09T15:36:40.043Z,17.65
2022-10-09T15:39:09.086Z,17.41
2022-10-09T15:41:38.566Z,17.30
2022-10-09T15:44:08.080Z,17.03
2022-10-09T15:46:34.765Z,16.69
2022-10-09T15:49:01.664Z,16.39
2022-10-09T15:51:30.101Z,16.25
2022-10-09T15:53:59.147Z,16.32
2022-10-09T15:56:25.852Z,16.20
2022-10-09T15:58:54.245Z,16.27
2022-10-09T16:01:21.565Z,16.15
2022-10-09T16:03:49.380Z,16.20
2022-10-09T16:06:19.215Z,15.91
2022-10-09T16:08:47.137Z,15.72
2022-10-09T16:11:17.932Z,15.64
2022-10-09T16:13:48.087Z,15.57
2022-10-09T16:16:21.084Z,15.17
2022-10-09T16:18:48.776Z,15.05
2022-10-09T16:21:18.565Z,15.12
2022-10-09T16:23:45.898Z,15.25
2022-10-09T16:26:17.221Z,14.84
2022-10-09T16:28:44.899Z,14.41
2022-10-09T16:31:19.316Z,14.53
2022-10-09T16:33:45.996Z,14.39
2022-10-09T16:36:13.197Z,14.54
2022-10-09T16:38:40.752Z,14.37
2022-10-09T16:41:13.457Z,13.96
2022-10-09T16:43:40.481Z,13.62
2022-10-09T16:46:24.275Z,13.86
2022-10-09T16:48:52.371Z,13.93
2022-10-09T16:51:25.406Z,13.53
2022-10-09T16:53:56.766Z,13.32
2022-10-09T16:56:25.815Z,13.39
2022-10-09T16:58:57.385Z,13.23
2022-10-09T17:01:25.442Z,13.33
2022-10-09T17:03:54.679Z,12.97
2022-10-09T17:06:23.861Z,13.05
2022-10-09T17:08:57.590Z,12.92
2022-10-09T17:11:25.819Z,12.97
2022-10-09T17:13:56.813Z,13.05
2022-10-09T17:16:26.570Z,13.03
2022-10-09T17:18:54.478Z,12.87
2022-10-09T17:21:21.222Z,12.78
2022-10-09T17:23:48.383Z,12.52
2022-10-09T17:26:17.631Z,12.68
2022-10-09T17:28:45.329Z,12.64
2022-10-09T17:31:14.932Z,12.44
2022-10-09T17:33:44.838Z,12.43
2022-10-09T17:36:20.046Z,11.97
2022-10-09T17:38:48.632Z,11.95
2022-10-09T17:41:18.308Z,11.97
2022-10-09T17:43:45.341Z,12.17
2022-10-09T17:46:14.543Z,11.98
2022-10-09T17:48:45.172Z,11.68
2022-10-09T17:51:18.262Z,11.98
2022-10-09T17:53:45.792Z,11.78
2022-10-09T17:56:13.104Z,11.88
2022-10-09T17:58:39.870Z,11.50
2022-10-09T18:01:08.435Z,11.58
2022-10-09T18:03:35.629Z,11.69
2022-10-09T18:06:06.059Z,11.86
2022-10-09T18:08:33.394Z,11.86
2022-10-09T18:11:03.019Z,11.80
2022-10-09T18:13:29.971Z,11.13
2022-10-09T18:15:56.668Z,11.05
2022-10-09T18:18:23.454Z,11.02
2022-10-09T18:20:50.216Z,10.96
2022-10-09T18:23:21.816Z,11.05
2022-10-09T18:25:49.306Z,10.97
2022-10-09T18:28:16.275Z,10.87
2022-10-09T18:30:46.124Z,11.02
2022-10-09T18:33:13.223Z,10.86
2022-10-09T18:35:40.435Z,10.87
2022-10-09T18:38:08.618Z,10.71
2022-10-09T18:40:45.642Z,10.62
2022-10-09T18:43:12.756Z,10.83
2022-10-09T18:45:45.105Z,10.89
2022-10-09T18:48:12.062Z,10.69
2022-10-09T18:50:38.817Z,10.71
2022-10-09T18:53:05.767Z,10.63
2022-10-09T18:55:32.835Z,10.36
2022-10-09T18:58:00.349Z,10.46
2022-10-09T19:00:27.245Z,10.30
2022-10-09T19:02:53.959Z,9.96
2022-10-09T19:05:20.613Z,10.11
2022-10-09T19:07:47.555Z,10.23
2022-10-09T19:10:14.561Z,10.39
2022-10-09T19:12:42.750Z,10.26
2022-10-09T19:15:12.305Z,10.39
2022-10-09T19:17:39.300Z,10.38
2022-10-09T19:20:06.426Z,10.28
2022-10-09T19:22:33.685Z,10.26
2022-10-09T19:25:01.262Z,10.26
2022-10-09T19:27:28.417Z,10.19
2022-10-09T19:29:55.148Z,10.30
2022-10-09T19:32:24.027Z,10.39
2022-10-09T19:34:50.878Z,10.43
2022-10-09T19:37:17.752Z,10.23
2022-10-09T19:39:48.547Z,10.11
2022-10-09T19:42:16.407Z,10.04
2022-10-09T19:44:47.318Z,10.05
2022-10-09T19:47:15.269Z,10.08
2022-10-09T19:49:42.286Z,9.94
2022-10-09T19:52:09.040Z,9.92
2022-10-09T19:54:36.369Z,9.83
2022-10-09T19:57:03.213Z,9.68
2022-10-09T19:59:30.136Z,9.71
2022-10-09T20:01:57.733Z,9.64
2022-10-09T20:04:24.907Z,9.55
2022-10-09T20:06:51.731Z,9.48
2022-10-09T20:09:18.531Z,9.26
2022-10-09T20:11:45.339Z,9.33
2022-10-09T20:14:12.011Z,9.37
2022-10-09T20:16:38.782Z,9.57
2022-10-09T20:19:05.712Z,9.66
2022-10-09T20:21:37.136Z,9.63
2022-10-09T20:24:04.289Z,9.53
2022-10-09T20:26:33.165Z,9.45
2022-10-09T20:29:00.355Z,9.17
2022-10-09T20:31:27.999Z,9.29
2022-10-09T20:33:55.886Z,9.19
2022-10-09T20:36:28.294Z,9.22
2022-10-09T20:38:57.135Z,9.20
2022-10-09T20:41:23.898Z,9.15
2022-10-09T20:43:54.708Z,9.13
2022-10-09T20:46:23.819Z,8.93
2022-10-09T20:48:52.707Z,9.03
2022-10-09T20:51:20.460Z,9.08
2022-10-09T20:53:51.462Z,9.18
2022-10-09T20:56:19.696Z,9.12
2022-10-09T20:58:46.369Z,9.09
2022-10-09T21:01:15.320Z,8.95
2022-10-09T21:03:42.833Z,8.99
2022-10-09T21:06:12.661Z,8.97
2022-10-09T21:08:39.756Z,8.89
2022-10-09T21:11:09.480Z,8.51
2022-10-09T21:13:37.619Z,8.50
2022-10-09T21:16:09.922Z,8.61
2022-10-09T21:18:36.772Z,8.53
2022-10-09T21:21:06.015Z,8.70
2022-10-09T21:23:33.192Z,8.71
2022-10-09T21:26:00.054Z,8.56
2022-10-09T21:28:26.857Z,8.21
2022-10-09T21:30:53.536Z,8.35
2022-10-09T21:33:20.535Z,8.36
2022-10-09T21:35:50.401Z,8.24
2022-10-09T21:38:22.198Z,8.31
2022-10-09T21:40:50.181Z,8.48
2022-10-09T21:43:17.923Z,8.57
2022-10-09T21:45:48.630Z,8.56
2022-10-09T21:48:16.596Z,8.37
2022-10-09T21:50:44.038Z,8.24
2022-10-09T21:53:11.655Z,8.24
2022-10-09T21:55:38.950Z,8.31
2022-10-09T21:58:06.531Z,8.29
2022-10-09T22:00:45.514Z,8.26
2022-10-09T22:03:12.197Z,8.38
2022-10-09T22:05:40.731Z,8.11
2022-10-09T22:08:07.445Z,8.18
2022-10-09T22:10:34.107Z,8.17
2022-10-09T22:13:00.851Z,8.15
2022-10-09T22:15:27.506Z,8.16
2022-10-09T22:17:54.136Z,8.22
2022-10-09T22:20:20.857Z,8.15
2022-10-09T22:22:48.029Z,8.20
2022-10-09T22:25:15.027Z,8.20
2022-10-09T22:27:41.712Z,7.97
2022-10-09T22:30:09.297Z,7.96
2022-10-09T22:32:35.996Z,7.89
2022-10-09T22:35:02.685Z,7.95
2022-10-09T22:37:29.422Z,7.76
2022-10-09T22:39:56.069Z,7.79
2022-10-09T22:42:22.763Z,7.95
2022-10-09T22:44:49.529Z,7.93
2022-10-09T22:47:16.134Z,7.94
2022-10-09T22:49:42.896Z,7.96
2022-10-09T22:52:09.503Z,7.73
2022-10-09T22:54:36.158Z,7.76
2022-10-09T22:57:02.890Z,7.76
2022-10-09T22:59:29.677Z,7.73
2022-10-09T23:01:57.901Z,7.77
2022-10-09T23:04:24.671Z,7.71
2022-10-09T23:06:56.817Z,7.46
2022-10-09T23:09:26.334Z,7.74
2022-10-09T23:11:54.108Z,7.79
2022-10-09T23:14:21.574Z,7.81
2022-10-09T23:16:48.949Z,7.89
2022-10-09T23:19:16.094Z,7.74
2022-10-09T23:21:44.320Z,7.96
2022-10-09T23:24:17.758Z,8.08
2022-10-09T23:26:46.355Z,8.08
2022-10-09T23:29:16.646Z,7.98
2022-10-09T23:31:43.870Z,7.88
2022-10-09T23:34:10.557Z,7.53
2022-10-09T23:36:37.348Z,7.65
2022-10-09T23:39:06.151Z,7.47
2022-10-09T23:41:33.141Z,7.75
2022-10-09T23:43:59.930Z,7.50
2022-10-09T23:46:29.469Z,7.52
2022-10-09T23:48:56.611Z,7.50
2022-10-09T23:51:25.322Z,7.54
2022-10-09T23:53:52.549Z,7.65
2022-10-09T23:56:28.551Z,7.74
2022-10-09T23:58:56.994Z,7.77
